sensor_id;sensor_type;location;lat;lon;timestamp;P1;durP1;ratioP1;P2;durP2;ratioP2
36379;SDS011;22411;53.016;18.632;2023-12-14T00:00:29;46.95;;;20.90;;
36379;SDS011;22411;53.016;18.632;2023-12-14T00:03:15;45.05;;;21.25;;
36379;SDS011;22411;53.016;18.632;2023-12-14T00:05:40;43.45;;;19.25;;
36379;SDS011;22411;53.016;18.632;2023-12-14T00:08:06;52.67;;;23.17;;
36379;SDS011;22411;53.016;18.632;2023-12-14T00:10:32;48.45;;;20.70;;
36379;SDS011;22411;53.016;18.632;2023-12-14T00:12:58;56.45;;;21.38;;
36379;SDS011;22411;53.016;18.632;2023-12-14T00:15:24;58.53;;;20.33;;
36379;SDS011;22411;53.016;18.632;2023-12-14T00:17:50;50.88;;;21.98;;
36379;SDS011;22411;53.016;18.632;2023-12-14T00:20:15;52.10;;;21.05;;
36379;SDS011;22411;53.016;18.632;2023-12-14T00:22:44;58.63;;;21.35;;
36379;SDS011;22411;53.016;18.632;2023-12-14T00:25:09;50.97;;;21.80;;
36379;SDS011;22411;53.016;18.632;2023-12-14T00:27:35;45.67;;;21.15;;
36379;SDS011;22411;53.016;18.632;2023-12-14T00:30:01;46.17;;;19.98;;
36379;SDS011;22411;53.016;18.632;2023-12-14T00:32:27;44.83;;;20.27;;
36379;SDS011;22411;53.016;18.632;2023-12-14T00:34:52;49.80;;;22.27;;
36379;SDS011;22411;53.016;18.632;2023-12-14T00:37:18;48.70;;;21.42;;
36379;SDS011;22411;53.016;18.632;2023-12-14T00:39:44;47.85;;;21.52;;
36379;SDS011;22411;53.016;18.632;2023-12-14T00:42:10;52.03;;;20.38;;
36379;SDS011;22411;53.016;18.632;2023-12-14T00:44:35;46.33;;;19.25;;
36379;SDS011;22411;53.016;18.632;2023-12-14T00:47:01;48.38;;;21.38;;
36379;SDS011;22411;53.016;18.632;2023-12-14T00:49:28;46.67;;;19.35;;
36379;SDS011;22411;53.016;18.632;2023-12-14T00:51:54;45.45;;;19.23;;
36379;SDS011;22411;53.016;18.632;2023-12-14T00:54:19;53.53;;;21.02;;
36379;SDS011;22411;53.016;18.632;2023-12-14T00:56:45;46.92;;;20.73;;
36379;SDS011;22411;53.016;18.632;2023-12-14T00:59:11;49.97;;;20.15;;
36379;SDS011;22411;53.016;18.632;2023-12-14T01:01:37;51.97;;;20.60;;
36379;SDS011;22411;53.016;18.632;2023-12-14T01:04:02;40.38;;;19.13;;
36379;SDS011;22411;53.016;18.632;2023-12-14T01:06:30;49.45;;;18.67;;
36379;SDS011;22411;53.016;18.632;2023-12-14T01:08:55;45.42;;;17.65;;
36379;SDS011;22411;53.016;18.632;2023-12-14T01:11:21;47.80;;;18.60;;
36379;SDS011;22411;53.016;18.632;2023-12-14T01:13:47;46.60;;;20.65;;
36379;SDS011;22411;53.016;18.632;2023-12-14T01:16:13;43.67;;;18.60;;
36379;SDS011;22411;53.016;18.632;2023-12-14T01:18:39;45.70;;;17.10;;
36379;SDS011;22411;53.016;18.632;2023-12-14T01:21:05;47.45;;;18.50;;
36379;SDS011;22411;53.016;18.632;2023-12-14T01:23:30;44.00;;;18.40;;
36379;SDS011;22411;53.016;18.632;2023-12-14T01:25:56;42.90;;;17.58;;
36379;SDS011;22411;53.016;18.632;2023-12-14T01:28:22;41.10;;;17.25;;
36379;SDS011;22411;53.016;18.632;2023-12-14T01:30:48;44.97;;;18.33;;
36379;SDS011;22411;53.016;18.632;2023-12-14T01:33:14;44.53;;;18.27;;
36379;SDS011;22411;53.016;18.632;2023-12-14T01:35:39;43.40;;;17.42;;
36379;SDS011;22411;53.016;18.632;2023-12-14T01:38:05;36.22;;;14.73;;
36379;SDS011;22411;53.016;18.632;2023-12-14T01:40:31;41.28;;;16.48;;
36379;SDS011;22411;53.016;18.632;2023-12-14T01:43:15;36.20;;;15.25;;
36379;SDS011;22411;53.016;18.632;2023-12-14T01:45:41;41.73;;;16.23;;
36379;SDS011;22411;53.016;18.632;2023-12-14T01:48:06;33.63;;;15.55;;
36379;SDS011;22411;53.016;18.632;2023-12-14T01:50:32;39.30;;;15.75;;
36379;SDS011;22411;53.016;18.632;2023-12-14T01:52:58;38.10;;;16.08;;
36379;SDS011;22411;53.016;18.632;2023-12-14T01:55:24;32.67;;;14.77;;
36379;SDS011;22411;53.016;18.632;2023-12-14T01:57:51;38.85;;;16.25;;
36379;SDS011;22411;53.016;18.632;2023-12-14T02:00:39;32.88;;;14.75;;
36379;SDS011;22411;53.016;18.632;2023-12-14T02:03:09;32.35;;;12.75;;
36379;SDS011;22411;53.016;18.632;2023-12-14T02:05:35;37.92;;;16.10;;
36379;SDS011;22411;53.016;18.632;2023-12-14T02:08:01;29.63;;;14.30;;
36379;SDS011;22411;53.016;18.632;2023-12-14T02:10:27;37.00;;;15.23;;
36379;SDS011;22411;53.016;18.632;2023-12-14T02:12:53;37.37;;;15.30;;
36379;SDS011;22411;53.016;18.632;2023-12-14T02:15:19;35.63;;;14.73;;
36379;SDS011;22411;53.016;18.632;2023-12-14T02:17:45;37.83;;;14.70;;
36379;SDS011;22411;53.016;18.632;2023-12-14T02:20:11;36.13;;;15.23;;
36379;SDS011;22411;53.016;18.632;2023-12-14T02:22:49;39.42;;;14.65;;
36379;SDS011;22411;53.016;18.632;2023-12-14T02:25:16;39.33;;;15.52;;
36379;SDS011;22411;53.016;18.632;2023-12-14T02:27:42;39.03;;;15.37;;
36379;SDS011;22411;53.016;18.632;2023-12-14T02:30:08;32.67;;;13.52;;
36379;SDS011;22411;53.016;18.632;2023-12-14T02:32:34;33.85;;;13.90;;
36379;SDS011;22411;53.016;18.632;2023-12-14T02:35:00;32.25;;;12.80;;
36379;SDS011;22411;53.016;18.632;2023-12-14T02:37:26;36.00;;;14.65;;
36379;SDS011;22411;53.016;18.632;2023-12-14T02:39:52;29.80;;;12.37;;
36379;SDS011;22411;53.016;18.632;2023-12-14T02:42:18;37.47;;;14.50;;
36379;SDS011;22411;53.016;18.632;2023-12-14T02:44:44;34.87;;;13.87;;
36379;SDS011;22411;53.016;18.632;2023-12-14T02:47:09;29.80;;;12.57;;
36379;SDS011;22411;53.016;18.632;2023-12-14T02:49:35;30.00;;;13.03;;
36379;SDS011;22411;53.016;18.632;2023-12-14T02:52:01;33.88;;;12.65;;
36379;SDS011;22411;53.016;18.632;2023-12-14T02:54:27;36.25;;;14.07;;
36379;SDS011;22411;53.016;18.632;2023-12-14T02:56:52;39.35;;;14.43;;
36379;SDS011;22411;53.016;18.632;2023-12-14T02:59:18;31.80;;;13.53;;
36379;SDS011;22411;53.016;18.632;2023-12-14T03:01:44;33.35;;;12.40;;
36379;SDS011;22411;53.016;18.632;2023-12-14T03:04:10;34.47;;;13.32;;
36379;SDS011;22411;53.016;18.632;2023-12-14T03:06:35;34.30;;;13.15;;
36379;SDS011;22411;53.016;18.632;2023-12-14T03:09:01;32.60;;;12.95;;
36379;SDS011;22411;53.016;18.632;2023-12-14T03:11:27;25.97;;;11.57;;
36379;SDS011;22411;53.016;18.632;2023-12-14T03:13:53;37.07;;;13.37;;
36379;SDS011;22411;53.016;18.632;2023-12-14T03:16:19;34.67;;;12.90;;
36379;SDS011;22411;53.016;18.632;2023-12-14T03:18:45;32.97;;;13.27;;
36379;SDS011;22411;53.016;18.632;2023-12-14T03:21:11;39.05;;;15.10;;
36379;SDS011;22411;53.016;18.632;2023-12-14T03:23:37;42.70;;;15.50;;
36379;SDS011;22411;53.016;18.632;2023-12-14T03:26:02;32.40;;;14.00;;
36379;SDS011;22411;53.016;18.632;2023-12-14T03:28:29;28.43;;;12.60;;
36379;SDS011;22411;53.016;18.632;2023-12-14T03:30:54;32.40;;;12.87;;
36379;SDS011;22411;53.016;18.632;2023-12-14T03:33:20;37.60;;;14.50;;
36379;SDS011;22411;53.016;18.632;2023-12-14T03:35:47;31.07;;;13.77;;
36379;SDS011;22411;53.016;18.632;2023-12-14T03:38:13;32.03;;;13.53;;
36379;SDS011;22411;53.016;18.632;2023-12-14T03:40:39;27.83;;;12.43;;
36379;SDS011;22411;53.016;18.632;2023-12-14T03:43:05;25.63;;;11.90;;
36379;SDS011;22411;53.016;18.632;2023-12-14T03:45:30;28.70;;;11.63;;
36379;SDS011;22411;53.016;18.632;2023-12-14T03:47:56;34.33;;;14.88;;
36379;SDS011;22411;53.016;18.632;2023-12-14T03:50:22;27.95;;;12.70;;
36379;SDS011;22411;53.016;18.632;2023-12-14T03:52:48;31.13;;;12.68;;
36379;SDS011;22411;53.016;18.632;2023-12-14T03:55:14;29.63;;;14.43;;
36379;SDS011;22411;53.016;18.632;2023-12-14T03:57:41;27.07;;;12.87;;
36379;SDS011;22411;53.016;18.632;2023-12-14T04:00:10;29.45;;;12.68;;
36379;SDS011;22411;53.016;18.632;2023-12-14T04:02:36;32.10;;;14.13;;
36379;SDS011;22411;53.016;18.632;2023-12-14T04:05:02;32.70;;;14.43;;
36379;SDS011;22411;53.016;18.632;2023-12-14T04:07:28;34.17;;;13.53;;
36379;SDS011;22411;53.016;18.632;2023-12-14T04:09:54;31.87;;;13.27;;
36379;SDS011;22411;53.016;18.632;2023-12-14T04:12:20;31.03;;;14.07;;
36379;SDS011;22411;53.016;18.632;2023-12-14T04:14:46;32.30;;;15.27;;
36379;SDS011;22411;53.016;18.632;2023-12-14T04:17:12;28.70;;;13.30;;
36379;SDS011;22411;53.016;18.632;2023-12-14T04:19:38;21.90;;;12.35;;
36379;SDS011;22411;53.016;18.632;2023-12-14T04:22:04;26.45;;;12.95;;
36379;SDS011;22411;53.016;18.632;2023-12-14T04:24:30;23.38;;;11.70;;
36379;SDS011;22411;53.016;18.632;2023-12-14T04:26:56;21.73;;;10.85;;
36379;SDS011;22411;53.016;18.632;2023-12-14T04:29:21;23.55;;;11.30;;
36379;SDS011;22411;53.016;18.632;2023-12-14T04:31:47;24.35;;;12.02;;
36379;SDS011;22411;53.016;18.632;2023-12-14T04:34:13;30.05;;;12.75;;
36379;SDS011;22411;53.016;18.632;2023-12-14T04:36:41;31.75;;;13.25;;
36379;SDS011;22411;53.016;18.632;2023-12-14T04:39:07;26.07;;;11.27;;
36379;SDS011;22411;53.016;18.632;2023-12-14T04:41:33;23.23;;;11.13;;
36379;SDS011;22411;53.016;18.632;2023-12-14T04:43:59;21.10;;;11.52;;
36379;SDS011;22411;53.016;18.632;2023-12-14T04:46:25;26.00;;;11.82;;
36379;SDS011;22411;53.016;18.632;2023-12-14T04:48:50;27.27;;;11.07;;
36379;SDS011;22411;53.016;18.632;2023-12-14T04:51:16;20.77;;;9.50;;
36379;SDS011;22411;53.016;18.632;2023-12-14T04:53:42;22.33;;;10.85;;
36379;SDS011;22411;53.016;18.632;2023-12-14T04:56:11;25.20;;;12.57;;
36379;SDS011;22411;53.016;18.632;2023-12-14T04:58:39;21.20;;;11.70;;
36379;SDS011;22411;53.016;18.632;2023-12-14T05:01:06;24.90;;;11.63;;
36379;SDS011;22411;53.016;18.632;2023-12-14T05:03:32;22.77;;;11.37;;
36379;SDS011;22411;53.016;18.632;2023-12-14T05:05:59;26.40;;;13.23;;
36379;SDS011;22411;53.016;18.632;2023-12-14T05:08:25;26.33;;;11.18;;
36379;SDS011;22411;53.016;18.632;2023-12-14T05:10:51;24.48;;;11.75;;
36379;SDS011;22411;53.016;18.632;2023-12-14T05:13:16;27.38;;;11.48;;
36379;SDS011;22411;53.016;18.632;2023-12-14T05:15:42;25.50;;;12.90;;
36379;SDS011;22411;53.016;18.632;2023-12-14T05:18:08;24.33;;;11.87;;
36379;SDS011;22411;53.016;18.632;2023-12-14T05:20:34;23.70;;;11.80;;
36379;SDS011;22411;53.016;18.632;2023-12-14T05:23:00;27.88;;;12.77;;
36379;SDS011;22411;53.016;18.632;2023-12-14T05:25:26;28.73;;;13.85;;
36379;SDS011;22411;53.016;18.632;2023-12-14T05:27:51;25.38;;;11.40;;
36379;SDS011;22411;53.016;18.632;2023-12-14T05:30:17;30.77;;;12.50;;
36379;SDS011;22411;53.016;18.632;2023-12-14T05:32:43;25.95;;;10.30;;
36379;SDS011;22411;53.016;18.632;2023-12-14T05:35:09;23.17;;;10.43;;
36379;SDS011;22411;53.016;18.632;2023-12-14T05:37:35;24.97;;;11.57;;
36379;SDS011;22411;53.016;18.632;2023-12-14T05:40:02;25.77;;;12.47;;
36379;SDS011;22411;53.016;18.632;2023-12-14T05:42:28;25.90;;;12.43;;
36379;SDS011;22411;53.016;18.632;2023-12-14T05:44:53;29.90;;;13.27;;
36379;SDS011;22411;53.016;18.632;2023-12-14T05:47:19;31.80;;;14.23;;
36379;SDS011;22411;53.016;18.632;2023-12-14T05:49:45;30.10;;;14.40;;
36379;SDS011;22411;53.016;18.632;2023-12-14T05:52:11;32.03;;;15.73;;
36379;SDS011;22411;53.016;18.632;2023-12-14T05:54:37;33.40;;;17.40;;
36379;SDS011;22411;53.016;18.632;2023-12-14T05:57:03;36.90;;;18.90;;
36379;SDS011;22411;53.016;18.632;2023-12-14T05:59:30;36.53;;;18.48;;
36379;SDS011;22411;53.016;18.632;2023-12-14T06:01:58;36.30;;;18.80;;
36379;SDS011;22411;53.016;18.632;2023-12-14T06:04:25;35.13;;;16.73;;
36379;SDS011;22411;53.016;18.632;2023-12-14T06:06:52;35.47;;;19.03;;
36379;SDS011;22411;53.016;18.632;2023-12-14T06:09:18;37.95;;;20.33;;
36379;SDS011;22411;53.016;18.632;2023-12-14T06:11:47;136.73;;;70.77;;
36379;SDS011;22411;53.016;18.632;2023-12-14T06:14:13;100.10;;;51.63;;
36379;SDS011;22411;53.016;18.632;2023-12-14T06:16:39;48.97;;;27.97;;
36379;SDS011;22411;53.016;18.632;2023-12-14T06:19:05;46.07;;;26.13;;
36379;SDS011;22411;53.016;18.632;2023-12-14T06:21:30;52.30;;;32.33;;
36379;SDS011;22411;53.016;18.632;2023-12-14T06:23:56;48.70;;;29.23;;
36379;SDS011;22411;53.016;18.632;2023-12-14T06:26:24;52.58;;;27.55;;
36379;SDS011;22411;53.016;18.632;2023-12-14T06:28:50;36.57;;;18.97;;
36379;SDS011;22411;53.016;18.632;2023-12-14T06:31:17;35.57;;;17.87;;
36379;SDS011;22411;53.016;18.632;2023-12-14T06:33:44;47.77;;;29.47;;
36379;SDS011;22411;53.016;18.632;2023-12-14T06:36:09;51.63;;;25.10;;
36379;SDS011;22411;53.016;18.632;2023-12-14T06:38:38;39.63;;;20.43;;
36379;SDS011;22411;53.016;18.632;2023-12-14T06:41:05;43.50;;;21.03;;
36379;SDS011;22411;53.016;18.632;2023-12-14T06:43:32;36.67;;;20.40;;
36379;SDS011;22411;53.016;18.632;2023-12-14T06:45:57;43.47;;;22.37;;
36379;SDS011;22411;53.016;18.632;2023-12-14T06:48:23;42.80;;;20.60;;
36379;SDS011;22411;53.016;18.632;2023-12-14T06:50:49;36.23;;;17.63;;
36379;SDS011;22411;53.016;18.632;2023-12-14T06:53:15;31.80;;;14.77;;
36379;SDS011;22411;53.016;18.632;2023-12-14T06:55:41;28.67;;;13.02;;
36379;SDS011;22411;53.016;18.632;2023-12-14T06:58:07;33.77;;;14.80;;
36379;SDS011;22411;53.016;18.632;2023-12-14T07:00:37;29.97;;;15.07;;
36379;SDS011;22411;53.016;18.632;2023-12-14T07:03:03;34.77;;;18.17;;
36379;SDS011;22411;53.016;18.632;2023-12-14T07:05:28;36.05;;;17.48;;
36379;SDS011;22411;53.016;18.632;2023-12-14T07:07:55;29.27;;;15.60;;
36379;SDS011;22411;53.016;18.632;2023-12-14T07:10:21;36.40;;;16.27;;
36379;SDS011;22411;53.016;18.632;2023-12-14T07:12:48;31.17;;;15.98;;
36379;SDS011;22411;53.016;18.632;2023-12-14T07:15:14;28.40;;;15.93;;
36379;SDS011;22411;53.016;18.632;2023-12-14T07:17:40;31.77;;;15.50;;
36379;SDS011;22411;53.016;18.632;2023-12-14T07:20:05;30.30;;;12.93;;
36379;SDS011;22411;53.016;18.632;2023-12-14T07:22:32;30.27;;;15.23;;
36379;SDS011;22411;53.016;18.632;2023-12-14T07:24:57;31.70;;;17.17;;
36379;SDS011;22411;53.016;18.632;2023-12-14T07:27:23;28.92;;;16.23;;
36379;SDS011;22411;53.016;18.632;2023-12-14T07:29:49;33.25;;;18.38;;
36379;SDS011;22411;53.016;18.632;2023-12-14T07:32:15;32.40;;;18.63;;
36379;SDS011;22411;53.016;18.632;2023-12-14T07:34:41;32.10;;;16.87;;
36379;SDS011;22411;53.016;18.632;2023-12-14T07:37:07;32.93;;;16.30;;
36379;SDS011;22411;53.016;18.632;2023-12-14T07:39:32;27.40;;;13.33;;
36379;SDS011;22411;53.016;18.632;2023-12-14T07:41:59;31.27;;;15.63;;
36379;SDS011;22411;53.016;18.632;2023-12-14T07:44:24;29.83;;;13.00;;
36379;SDS011;22411;53.016;18.632;2023-12-14T07:46:51;40.13;;;17.67;;
36379;SDS011;22411;53.016;18.632;2023-12-14T07:49:17;35.23;;;15.47;;
36379;SDS011;22411;53.016;18.632;2023-12-14T07:51:47;33.17;;;14.38;;
36379;SDS011;22411;53.016;18.632;2023-12-14T07:54:13;29.33;;;15.00;;
36379;SDS011;22411;53.016;18.632;2023-12-14T07:56:39;30.57;;;13.77;;
36379;SDS011;22411;53.016;18.632;2023-12-14T07:59:05;33.50;;;14.33;;
36379;SDS011;22411;53.016;18.632;2023-12-14T08:01:36;35.90;;;14.47;;
36379;SDS011;22411;53.016;18.632;2023-12-14T08:04:02;31.37;;;15.03;;
36379;SDS011;22411;53.016;18.632;2023-12-14T08:06:28;34.03;;;13.90;;
36379;SDS011;22411;53.016;18.632;2023-12-14T08:08:54;48.93;;;25.73;;
36379;SDS011;22411;53.016;18.632;2023-12-14T08:11:23;58.93;;;33.37;;
36379;SDS011;22411;53.016;18.632;2023-12-14T08:13:49;32.17;;;17.07;;
36379;SDS011;22411;53.016;18.632;2023-12-14T08:16:16;34.27;;;15.40;;
36379;SDS011;22411;53.016;18.632;2023-12-14T08:18:43;32.07;;;16.17;;
36379;SDS011;22411;53.016;18.632;2023-12-14T08:21:13;28.60;;;13.00;;
36379;SDS011;22411;53.016;18.632;2023-12-14T08:23:40;35.23;;;16.23;;
36379;SDS011;22411;53.016;18.632;2023-12-14T08:26:06;34.83;;;17.70;;
36379;SDS011;22411;53.016;18.632;2023-12-14T08:28:33;36.87;;;16.83;;
36379;SDS011;22411;53.016;18.632;2023-12-14T08:31:00;39.70;;;16.23;;
36379;SDS011;22411;53.016;18.632;2023-12-14T08:33:31;37.57;;;15.77;;
36379;SDS011;22411;53.016;18.632;2023-12-14T08:35:57;32.80;;;16.13;;
36379;SDS011;22411;53.016;18.632;2023-12-14T08:38:23;27.07;;;13.50;;
36379;SDS011;22411;53.016;18.632;2023-12-14T08:40:49;21.40;;;11.40;;
36379;SDS011;22411;53.016;18.632;2023-12-14T08:43:16;25.27;;;12.07;;
36379;SDS011;22411;53.016;18.632;2023-12-14T08:45:42;24.50;;;10.70;;
36379;SDS011;22411;53.016;18.632;2023-12-14T08:48:08;24.33;;;11.13;;
36379;SDS011;22411;53.016;18.632;2023-12-14T08:50:34;32.13;;;13.30;;
36379;SDS011;22411;53.016;18.632;2023-12-14T08:53:00;24.30;;;13.97;;
36379;SDS011;22411;53.016;18.632;2023-12-14T08:55:28;21.67;;;11.33;;
36379;SDS011;22411;53.016;18.632;2023-12-14T08:57:54;24.27;;;12.33;;
36379;SDS011;22411;53.016;18.632;2023-12-14T09:00:19;21.77;;;10.60;;
36379;SDS011;22411;53.016;18.632;2023-12-14T09:02:45;18.57;;;9.27;;
36379;SDS011;22411;53.016;18.632;2023-12-14T09:05:12;22.00;;;10.60;;
36379;SDS011;22411;53.016;18.632;2023-12-14T09:07:38;28.88;;;15.10;;
36379;SDS011;22411;53.016;18.632;2023-12-14T09:10:04;28.70;;;14.53;;
36379;SDS011;22411;53.016;18.632;2023-12-14T09:12:35;21.33;;;11.57;;
36379;SDS011;22411;53.016;18.632;2023-12-14T09:15:00;25.83;;;16.27;;
36379;SDS011;22411;53.016;18.632;2023-12-14T09:17:27;21.42;;;12.32;;
36379;SDS011;22411;53.016;18.632;2023-12-14T09:20:00;26.88;;;15.55;;
36379;SDS011;22411;53.016;18.632;2023-12-14T09:22:30;34.47;;;21.85;;
36379;SDS011;22411;53.016;18.632;2023-12-14T09:24:56;34.78;;;22.50;;
36379;SDS011;22411;53.016;18.632;2023-12-14T09:27:23;28.33;;;17.27;;
36379;SDS011;22411;53.016;18.632;2023-12-14T09:29:48;35.88;;;19.98;;
36379;SDS011;22411;53.016;18.632;2023-12-14T09:32:14;25.47;;;14.07;;
36379;SDS011;22411;53.016;18.632;2023-12-14T09:34:42;27.50;;;16.85;;
36379;SDS011;22411;53.016;18.632;2023-12-14T09:37:08;32.30;;;19.63;;
36379;SDS011;22411;53.016;18.632;2023-12-14T09:39:34;21.90;;;13.40;;
36379;SDS011;22411;53.016;18.632;2023-12-14T09:42:02;34.70;;;20.20;;
36379;SDS011;22411;53.016;18.632;2023-12-14T09:44:31;49.58;;;31.08;;
36379;SDS011;22411;53.016;18.632;2023-12-14T09:46:58;74.32;;;40.17;;
36379;SDS011;22411;53.016;18.632;2023-12-14T09:49:25;50.53;;;23.00;;
36379;SDS011;22411;53.016;18.632;2023-12-14T09:51:55;44.05;;;22.33;;
36379;SDS011;22411;53.016;18.632;2023-12-14T09:54:21;38.40;;;22.85;;
36379;SDS011;22411;53.016;18.632;2023-12-14T09:56:48;27.00;;;16.02;;
36379;SDS011;22411;53.016;18.632;2023-12-14T09:59:15;30.58;;;17.95;;
36379;SDS011;22411;53.016;18.632;2023-12-14T10:01:42;30.90;;;17.77;;
36379;SDS011;22411;53.016;18.632;2023-12-14T10:06:34;36.45;;;21.92;;
36379;SDS011;22411;53.016;18.632;2023-12-14T10:09:00;24.97;;;15.77;;
36379;SDS011;22411;53.016;18.632;2023-12-14T10:11:26;21.87;;;13.73;;
36379;SDS011;22411;53.016;18.632;2023-12-14T10:13:52;19.30;;;10.35;;
36379;SDS011;22411;53.016;18.632;2023-12-14T10:16:28;20.00;;;11.48;;
36379;SDS011;22411;53.016;18.632;2023-12-14T10:18:57;18.53;;;12.17;;
36379;SDS011;22411;53.016;18.632;2023-12-14T10:21:25;19.00;;;11.37;;
36379;SDS011;22411;53.016;18.632;2023-12-14T10:23:52;23.90;;;13.52;;
36379;SDS011;22411;53.016;18.632;2023-12-14T10:26:21;18.27;;;11.40;;
36379;SDS011;22411;53.016;18.632;2023-12-14T10:28:49;15.95;;;10.38;;
36379;SDS011;22411;53.016;18.632;2023-12-14T10:31:16;14.70;;;8.18;;
36379;SDS011;22411;53.016;18.632;2023-12-14T10:33:41;12.80;;;7.93;;
36379;SDS011;22411;53.016;18.632;2023-12-14T10:36:07;14.25;;;9.30;;
36379;SDS011;22411;53.016;18.632;2023-12-14T10:38:34;16.10;;;9.43;;
36379;SDS011;22411;53.016;18.632;2023-12-14T10:41:04;15.05;;;8.60;;
36379;SDS011;22411;53.016;18.632;2023-12-14T10:43:30;16.02;;;8.52;;
36379;SDS011;22411;53.016;18.632;2023-12-14T10:45:59;14.07;;;8.10;;
36379;SDS011;22411;53.016;18.632;2023-12-14T10:48:26;15.63;;;10.18;;
36379;SDS011;22411;53.016;18.632;2023-12-14T10:50:54;12.45;;;8.18;;
36379;SDS011;22411;53.016;18.632;2023-12-14T10:53:23;15.00;;;9.25;;
36379;SDS011;22411;53.016;18.632;2023-12-14T10:55:49;19.17;;;12.80;;
36379;SDS011;22411;53.016;18.632;2023-12-14T10:58:16;15.77;;;9.50;;
36379;SDS011;22411;53.016;18.632;2023-12-14T11:00:54;24.30;;;14.37;;
36379;SDS011;22411;53.016;18.632;2023-12-14T11:03:25;16.67;;;10.43;;
36379;SDS011;22411;53.016;18.632;2023-12-14T11:05:51;11.77;;;8.15;;
36379;SDS011;22411;53.016;18.632;2023-12-14T11:08:17;14.75;;;7.30;;
36379;SDS011;22411;53.016;18.632;2023-12-14T11:10:52;12.52;;;6.30;;
36379;SDS011;22411;53.016;18.632;2023-12-14T11:13:22;12.57;;;7.05;;
36379;SDS011;22411;53.016;18.632;2023-12-14T11:15:50;12.05;;;7.78;;
36379;SDS011;22411;53.016;18.632;2023-12-14T11:23:11;15.75;;;8.18;;
36379;SDS011;22411;53.016;18.632;2023-12-14T11:25:41;17.48;;;8.90;;
36379;SDS011;22411;53.016;18.632;2023-12-14T11:28:07;21.10;;;13.18;;
36379;SDS011;22411;53.016;18.632;2023-12-14T11:30:36;25.13;;;18.05;;
36379;SDS011;22411;53.016;18.632;2023-12-14T11:33:02;20.87;;;12.87;;
36379;SDS011;22411;53.016;18.632;2023-12-14T11:35:29;12.93;;;8.93;;
36379;SDS011;22411;53.016;18.632;2023-12-14T11:37:55;16.13;;;8.52;;
36379;SDS011;22411;53.016;18.632;2023-12-14T11:40:28;12.32;;;8.98;;
36379;SDS011;22411;53.016;18.632;2023-12-14T11:43:00;13.95;;;7.07;;
36379;SDS011;22411;53.016;18.632;2023-12-14T11:45:27;13.00;;;8.40;;
36379;SDS011;22411;53.016;18.632;2023-12-14T11:47:53;11.27;;;7.55;;
36379;SDS011;22411;53.016;18.632;2023-12-14T11:50:19;13.10;;;7.07;;
36379;SDS011;22411;53.016;18.632;2023-12-14T11:52:45;10.77;;;6.82;;
36379;SDS011;22411;53.016;18.632;2023-12-14T11:55:12;10.15;;;5.95;;
36379;SDS011;22411;53.016;18.632;2023-12-14T11:57:39;12.75;;;7.35;;
36379;SDS011;22411;53.016;18.632;2023-12-14T12:00:12;24.30;;;15.65;;
36379;SDS011;22411;53.016;18.632;2023-12-14T12:02:38;28.87;;;17.33;;
36379;SDS011;22411;53.016;18.632;2023-12-14T12:05:06;24.85;;;14.57;;
36379;SDS011;22411;53.016;18.632;2023-12-14T12:07:32;23.85;;;13.50;;
36379;SDS011;22411;53.016;18.632;2023-12-14T12:09:58;20.83;;;13.50;;
36379;SDS011;22411;53.016;18.632;2023-12-14T12:12:25;15.88;;;9.65;;
36379;SDS011;22411;53.016;18.632;2023-12-14T12:14:50;16.30;;;9.10;;
36379;SDS011;22411;53.016;18.632;2023-12-14T12:17:18;11.23;;;7.60;;
36379;SDS011;22411;53.016;18.632;2023-12-14T12:19:47;15.53;;;8.10;;
36379;SDS011;22411;53.016;18.632;2023-12-14T12:22:13;13.75;;;8.15;;
36379;SDS011;22411;53.016;18.632;2023-12-14T12:24:39;12.73;;;8.30;;
36379;SDS011;22411;53.016;18.632;2023-12-14T12:27:04;12.38;;;7.07;;
36379;SDS011;22411;53.016;18.632;2023-12-14T12:29:30;13.43;;;8.17;;
36379;SDS011;22411;53.016;18.632;2023-12-14T12:31:56;13.80;;;7.63;;
36379;SDS011;22411;53.016;18.632;2023-12-14T12:34:22;13.03;;;7.07;;
36379;SDS011;22411;53.016;18.632;2023-12-14T12:36:47;19.63;;;10.67;;
36379;SDS011;22411;53.016;18.632;2023-12-14T12:39:13;26.90;;;18.40;;
36379;SDS011;22411;53.016;18.632;2023-12-14T12:41:39;24.70;;;15.40;;
36379;SDS011;22411;53.016;18.632;2023-12-14T12:44:05;48.33;;;32.03;;
36379;SDS011;22411;53.016;18.632;2023-12-14T12:46:32;25.10;;;18.57;;
36379;SDS011;22411;53.016;18.632;2023-12-14T12:49:00;35.10;;;21.13;;
36379;SDS011;22411;53.016;18.632;2023-12-14T12:51:26;18.27;;;12.23;;
36379;SDS011;22411;53.016;18.632;2023-12-14T12:53:54;13.15;;;9.45;;
36379;SDS011;22411;53.016;18.632;2023-12-14T12:56:20;15.97;;;11.00;;
36379;SDS011;22411;53.016;18.632;2023-12-14T12:58:46;38.20;;;21.43;;
36379;SDS011;22411;53.016;18.632;2023-12-14T13:01:14;48.40;;;24.42;;
36379;SDS011;22411;53.016;18.632;2023-12-14T13:03:40;47.80;;;23.70;;
36379;SDS011;22411;53.016;18.632;2023-12-14T13:06:05;65.82;;;35.75;;
36379;SDS011;22411;53.016;18.632;2023-12-14T13:08:31;36.10;;;21.13;;
36379;SDS011;22411;53.016;18.632;2023-12-14T13:10:58;40.60;;;29.85;;
36379;SDS011;22411;53.016;18.632;2023-12-14T13:13:32;61.03;;;40.65;;
36379;SDS011;22411;53.016;18.632;2023-12-14T13:15:58;61.67;;;36.88;;
36379;SDS011;22411;53.016;18.632;2023-12-14T13:18:23;47.07;;;28.00;;
36379;SDS011;22411;53.016;18.632;2023-12-14T13:20:49;42.03;;;20.10;;
36379;SDS011;22411;53.016;18.632;2023-12-14T13:23:15;51.73;;;25.07;;
36379;SDS011;22411;53.016;18.632;2023-12-14T13:25:41;47.67;;;22.20;;
36379;SDS011;22411;53.016;18.632;2023-12-14T13:28:07;49.10;;;22.88;;
36379;SDS011;22411;53.016;18.632;2023-12-14T13:30:32;42.00;;;21.77;;
36379;SDS011;22411;53.016;18.632;2023-12-14T13:32:58;30.92;;;17.42;;
36379;SDS011;22411;53.016;18.632;2023-12-14T13:35:24;37.65;;;19.38;;
36379;SDS011;22411;53.016;18.632;2023-12-14T13:37:50;33.27;;;17.40;;
36379;SDS011;22411;53.016;18.632;2023-12-14T13:40:16;39.60;;;20.25;;
36379;SDS011;22411;53.016;18.632;2023-12-14T13:42:42;28.92;;;15.73;;
36379;SDS011;22411;53.016;18.632;2023-12-14T13:45:08;30.50;;;17.00;;
36379;SDS011;22411;53.016;18.632;2023-12-14T13:47:35;34.00;;;17.47;;
36379;SDS011;22411;53.016;18.632;2023-12-14T13:50:01;30.73;;;16.37;;
36379;SDS011;22411;53.016;18.632;2023-12-14T13:52:29;27.63;;;14.10;;
36379;SDS011;22411;53.016;18.632;2023-12-14T13:54:55;34.53;;;15.90;;
36379;SDS011;22411;53.016;18.632;2023-12-14T13:57:24;30.93;;;14.80;;
36379;SDS011;22411;53.016;18.632;2023-12-14T13:59:50;38.00;;;19.37;;
36379;SDS011;22411;53.016;18.632;2023-12-14T14:02:16;24.90;;;14.30;;
36379;SDS011;22411;53.016;18.632;2023-12-14T14:04:41;26.73;;;13.73;;
36379;SDS011;22411;53.016;18.632;2023-12-14T14:07:08;26.63;;;13.60;;
36379;SDS011;22411;53.016;18.632;2023-12-14T14:09:34;28.53;;;14.60;;
36379;SDS011;22411;53.016;18.632;2023-12-14T14:12:00;32.87;;;17.20;;
36379;SDS011;22411;53.016;18.632;2023-12-14T14:14:25;32.38;;;17.50;;